createdAt,value
2017-09-19T00:01:07.075Z,1.62
2017-09-19T00:03:34.645Z,3.58
2017-09-19T00:06:02.209Z,2.05
2017-09-19T00:08:29.803Z,2.22
2017-09-19T00:10:58.118Z,1.85
2017-09-19T00:13:25.994Z,1.98
2017-09-19T00:15:53.565Z,2.20
2017-09-19T00:18:21.123Z,2.33
2017-09-19T00:20:48.712Z,2.45
2017-09-19T00:23:17.032Z,2.05
2017-09-19T00:25:44.601Z,2.20
2017-09-19T00:28:12.163Z,2.50
2017-09-19T00:30:39.738Z,2.25
2017-09-19T00:33:07.306Z,1.90
2017-09-19T00:35:35.243Z,2.20
2017-09-19T00:38:02.822Z,2.00
2017-09-19T00:40:30.383Z,2.00
2017-09-19T00:42:57.964Z,1.95
2017-09-19T00:45:26.302Z,2.03
2017-09-19T00:47:53.877Z,2.22
2017-09-19T00:50:21.425Z,2.17
2017-09-19T00:52:49.271Z,2.05
2017-09-19T00:55:16.829Z,1.95
2017-09-19T00:57:44.372Z,1.90
2017-09-19T01:00:11.933Z,1.90
2017-09-19T01:02:39.507Z,2.15
2017-09-19T01:05:07.081Z,1.85
2017-09-19T01:07:34.649Z,1.90
2017-09-19T01:10:02.206Z,1.85
2017-09-19T01:12:29.762Z,2.03
2017-09-19T01:14:57.622Z,2.40
2017-09-19T01:17:25.169Z,3.17
2017-09-19T01:19:53.160Z,1.90
2017-09-19T01:22:20.732Z,1.70
2017-09-19T01:24:48.299Z,2.65
2017-09-19T01:27:15.877Z,1.70
2017-09-19T01:29:44.200Z,2.00
2017-09-19T01:32:12.058Z,1.83
2017-09-19T01:34:39.626Z,1.95
2017-09-19T01:37:07.182Z,1.98
2017-09-19T01:39:43.166Z,1.92
2017-09-19T01:42:10.738Z,2.03
2017-09-19T01:44:38.309Z,2.37
2017-09-19T01:47:06.630Z,2.53
2017-09-19T01:49:34.501Z,2.20
2017-09-19T01:52:02.835Z,1.98
2017-09-19T01:54:31.153Z,1.90
2017-09-19T01:56:58.712Z,2.20
2017-09-19T01:59:26.279Z,2.15
2017-09-19T02:01:53.841Z,2.12
2017-09-19T02:04:21.395Z,1.92
2017-09-19T02:06:48.962Z,2.10
2017-09-19T02:09:16.528Z,2.00
2017-09-19T02:11:44.379Z,2.05
2017-09-19T02:14:11.960Z,2.00
2017-09-19T02:16:39.526Z,2.20
2017-09-19T02:19:07.095Z,2.35
2017-09-19T02:21:34.674Z,2.10
2017-09-19T02:24:02.235Z,2.10
2017-09-19T02:26:29.794Z,2.08
2017-09-19T02:28:57.370Z,1.95
2017-09-19T02:31:24.923Z,1.85
2017-09-19T02:33:52.474Z,2.10
2017-09-19T02:36:20.034Z,2.20
2017-09-19T02:38:47.607Z,2.20
2017-09-19T02:41:15.173Z,2.17
2017-09-19T02:43:42.726Z,2.20
2017-09-19T02:46:10.309Z,2.12
2017-09-19T02:48:37.872Z,2.17
2017-09-19T02:51:05.717Z,2.30
2017-09-19T02:53:33.969Z,2.10
2017-09-19T02:56:01.534Z,2.30
2017-09-19T02:58:29.108Z,2.17
2017-09-19T03:00:56.665Z,2.30
2017-09-19T03:03:24.238Z,2.72
2017-09-19T03:05:51.793Z,2.87
2017-09-19T03:08:19.654Z,3.15
2017-09-19T03:10:47.212Z,3.80
2017-09-19T03:13:14.794Z,4.10
2017-09-19T03:15:42.396Z,4.70
2017-09-19T03:18:09.959Z,4.28
2017-09-19T03:20:37.554Z,4.85
2017-09-19T03:23:05.111Z,5.68
2017-09-19T03:25:32.694Z,5.00
2017-09-19T03:28:00.245Z,5.35
2017-09-19T03:30:28.193Z,5.50
2017-09-19T03:32:55.754Z,5.55
2017-09-19T03:35:23.316Z,5.68
2017-09-19T03:37:50.910Z,6.30
2017-09-19T03:40:19.264Z,6.00
2017-09-19T03:42:46.846Z,5.40
2017-09-19T03:45:15.177Z,5.10
2017-09-19T03:47:42.746Z,5.80
2017-09-19T03:50:10.313Z,6.40
2017-09-19T03:52:38.158Z,5.55
2017-09-19T03:55:05.800Z,6.15
2017-09-19T03:57:33.361Z,6.22
2017-09-19T04:00:00.937Z,5.60
2017-09-19T04:02:28.497Z,6.87
2017-09-19T04:04:56.054Z,6.60
2017-09-19T04:07:23.617Z,6.45
2017-09-19T04:09:51.187Z,5.95
2017-09-19T04:12:18.749Z,6.45
2017-09-19T04:14:46.578Z,5.70
2017-09-19T04:17:14.129Z,6.12
2017-09-19T04:19:41.695Z,6.57
2017-09-19T04:22:09.256Z,5.65
2017-09-19T04:24:36.815Z,5.45
2017-09-19T04:27:04.388Z,6.07
2017-09-19T04:29:31.958Z,6.43
2017-09-19T04:31:59.524Z,6.75
2017-09-19T04:34:27.085Z,7.10
2017-09-19T04:36:54.952Z,7.07
2017-09-19T04:39:22.515Z,7.35
2017-09-19T04:41:50.081Z,7.12
2017-09-19T04:44:17.660Z,7.70
2017-09-19T04:46:45.998Z,7.35
2017-09-19T04:49:13.584Z,8.70
2017-09-19T04:51:41.151Z,8.55
2017-09-19T04:54:08.723Z,8.30
2017-09-19T04:56:37.055Z,8.93
2017-09-19T04:59:04.626Z,8.73
2017-09-19T05:01:32.245Z,8.93
2017-09-19T05:03:59.811Z,9.10
2017-09-19T05:06:27.382Z,8.65
2017-09-19T05:08:54.952Z,8.52
2017-09-19T05:11:22.799Z,8.27
2017-09-19T05:13:50.358Z,7.87
2017-09-19T05:16:17.916Z,7.95
2017-09-19T05:18:45.489Z,8.05
2017-09-19T05:21:13.085Z,8.50
2017-09-19T05:23:40.661Z,8.98
2017-09-19T05:26:08.993Z,8.23
2017-09-19T05:28:36.627Z,8.48
2017-09-19T05:31:04.189Z,8.35
2017-09-19T05:33:32.294Z,8.88
2017-09-19T05:35:59.884Z,8.40
2017-09-19T05:38:28.205Z,8.68
2017-09-19T05:40:55.790Z,7.65
2017-09-19T05:43:23.354Z,7.45
2017-09-19T05:45:50.926Z,7.95
2017-09-19T05:48:18.500Z,7.15
2017-09-19T05:50:46.831Z,6.80
2017-09-19T05:53:14.426Z,6.30
2017-09-19T05:55:42.765Z,6.65
2017-09-19T05:58:11.313Z,6.85
2017-09-19T06:00:39.203Z,5.80
2017-09-19T06:03:07.513Z,6.25
2017-09-19T06:05:35.079Z,7.00
2017-09-19T06:08:03.424Z,7.35
2017-09-19T06:10:30.978Z,6.85
2017-09-19T06:12:58.550Z,7.43
2017-09-19T06:15:26.136Z,6.90
2017-09-19T06:17:54.482Z,6.35
2017-09-19T06:20:22.050Z,5.45
2017-09-19T06:22:49.621Z,6.05
2017-09-19T06:25:17.196Z,6.03
2017-09-19T06:27:45.532Z,5.65
2017-09-19T06:30:13.088Z,5.25
2017-09-19T06:32:41.757Z,5.55
2017-09-19T06:35:09.321Z,5.50
2017-09-19T06:37:37.655Z,5.80
2017-09-19T06:40:06.025Z,4.90
2017-09-19T06:42:34.358Z,5.80
2017-09-19T06:45:01.960Z,5.28
2017-09-19T06:47:30.288Z,5.50
2017-09-19T06:49:57.884Z,5.75
2017-09-19T06:52:25.457Z,5.65
2017-09-19T06:54:54.105Z,6.37
2017-09-19T06:57:21.666Z,5.82
2017-09-19T06:59:49.228Z,6.03
2017-09-19T07:02:16.808Z,6.82
2017-09-19T07:04:44.385Z,6.25
2017-09-19T07:07:12.734Z,6.18
2017-09-19T07:09:40.344Z,6.75
2017-09-19T07:12:07.938Z,7.20
2017-09-19T07:14:35.503Z,7.00
2017-09-19T07:17:03.360Z,6.70
2017-09-19T07:19:30.924Z,6.10
2017-09-19T07:21:59.252Z,7.10
2017-09-19T07:24:26.834Z,6.20
2017-09-19T07:26:54.385Z,5.43
2017-09-19T07:29:21.961Z,6.00
2017-09-19T07:31:49.527Z,5.95
2017-09-19T07:34:17.610Z,6.57
2017-09-19T07:36:45.170Z,5.80
2017-09-19T07:39:12.718Z,6.23
2017-09-19T07:41:40.290Z,6.40
2017-09-19T07:44:07.850Z,5.43
2017-09-19T07:46:35.422Z,5.35
2017-09-19T07:49:02.984Z,5.12
2017-09-19T07:51:30.572Z,6.22
2017-09-19T07:53:59.035Z,6.07
2017-09-19T07:56:26.610Z,6.37
2017-09-19T07:58:54.159Z,6.30
2017-09-19T08:01:22.496Z,5.55
2017-09-19T08:03:50.064Z,6.05
2017-09-19T08:06:17.626Z,5.80
2017-09-19T08:08:45.202Z,5.93
2017-09-19T08:11:12.772Z,5.25
2017-09-19T08:13:41.123Z,5.35
2017-09-19T08:16:08.718Z,6.70
2017-09-19T08:18:37.396Z,5.57
2017-09-19T08:21:05.722Z,5.70
2017-09-19T08:23:33.414Z,6.68
2017-09-19T08:26:00.970Z,7.20
2017-09-19T08:28:28.521Z,6.97
2017-09-19T08:30:56.100Z,7.12
2017-09-19T08:33:23.654Z,6.60
2017-09-19T08:35:51.249Z,6.80
2017-09-19T08:38:18.799Z,5.40
2017-09-19T08:40:46.682Z,6.60
2017-09-19T08:43:14.275Z,7.18
2017-09-19T08:45:41.850Z,7.07
2017-09-19T08:48:09.415Z,7.40
2017-09-19T08:50:36.974Z,6.72
2017-09-19T08:53:04.553Z,7.15
2017-09-19T08:55:32.879Z,7.18
2017-09-19T08:58:00.457Z,6.57
2017-09-19T09:00:28.072Z,5.60
2017-09-19T09:02:56.585Z,7.03
2017-09-19T09:05:24.161Z,6.60
2017-09-19T09:07:52.023Z,6.90
2017-09-19T09:10:19.590Z,6.07
2017-09-19T09:12:47.958Z,5.95
2017-09-19T09:15:15.533Z,5.68
2017-09-19T09:17:43.114Z,6.20
2017-09-19T09:20:11.467Z,6.95
2017-09-19T09:22:39.028Z,5.70
2017-09-19T09:25:06.601Z,6.18
2017-09-19T09:27:34.928Z,5.28
2017-09-19T09:30:02.512Z,5.37
2017-09-19T09:32:30.093Z,5.93
2017-09-19T09:34:58.727Z,6.60
2017-09-19T09:37:26.317Z,5.65
2017-09-19T09:39:53.889Z,5.43
2017-09-19T09:42:21.451Z,6.30
2017-09-19T09:44:49.772Z,6.25
2017-09-19T09:47:17.359Z,6.03
2017-09-19T09:49:44.930Z,6.35
2017-09-19T09:52:12.499Z,6.40
2017-09-19T09:54:40.074Z,6.12
2017-09-19T09:57:08.413Z,6.22
2017-09-19T09:59:35.959Z,6.47
2017-09-19T10:02:04.653Z,6.55
2017-09-19T10:04:32.240Z,6.50
2017-09-19T10:06:59.815Z,6.40
2017-09-19T10:09:28.165Z,8.98
2017-09-19T10:11:55.734Z,5.70
2017-09-19T10:14:23.299Z,6.62
2017-09-19T10:16:51.626Z,6.55
2017-09-19T10:19:19.195Z,6.30
2017-09-19T10:21:46.762Z,6.55
2017-09-19T10:24:14.615Z,6.65
2017-09-19T10:26:42.180Z,6.55
2017-09-19T10:29:09.744Z,6.95
2017-09-19T10:31:37.339Z,7.15
2017-09-19T10:34:05.665Z,7.35
2017-09-19T10:36:33.219Z,6.95
2017-09-19T10:39:01.522Z,7.15
2017-09-19T10:41:29.117Z,6.60
2017-09-19T10:43:57.434Z,7.60
2017-09-19T10:46:25.009Z,8.10
2017-09-19T10:48:52.563Z,7.18
2017-09-19T10:51:20.506Z,8.50
2017-09-19T10:53:48.066Z,9.02
2017-09-19T10:56:15.616Z,9.35
2017-09-19T10:58:43.195Z,7.93
2017-09-19T11:01:10.763Z,7.90
2017-09-19T11:03:39.447Z,8.68
2017-09-19T11:06:07.003Z,8.43
2017-09-19T11:08:34.562Z,9.88
2017-09-19T11:11:02.151Z,8.05
2017-09-19T11:13:48.917Z,8.07
2017-09-19T11:16:16.486Z,7.97
2017-09-19T11:18:44.033Z,8.30
2017-09-19T11:21:11.922Z,8.43
2017-09-19T11:23:39.474Z,8.15
2017-09-19T11:26:07.038Z,7.65
2017-09-19T11:28:34.635Z,8.82
2017-09-19T11:31:02.958Z,8.57
2017-09-19T11:33:30.559Z,8.07
2017-09-19T11:35:58.112Z,8.98
2017-09-19T11:38:25.711Z,8.73
2017-09-19T11:40:53.287Z,8.48
2017-09-19T11:43:21.557Z,7.97
2017-09-19T11:45:49.142Z,7.62
2017-09-19T11:48:16.705Z,8.15
2017-09-19T11:50:44.270Z,5.53
2017-09-19T11:53:11.854Z,6.45
2017-09-19T11:55:39.432Z,6.35
2017-09-19T11:58:07.763Z,5.82
2017-09-19T12:00:35.610Z,6.45
2017-09-19T12:03:03.167Z,6.15
2017-09-19T12:05:30.742Z,6.62
2017-09-19T12:07:58.492Z,6.55
2017-09-19T12:10:26.071Z,6.20
2017-09-19T12:12:53.640Z,5.37
2017-09-19T12:15:21.230Z,4.93
2017-09-19T12:17:49.160Z,5.95
2017-09-19T12:20:16.712Z,5.05
2017-09-19T12:22:44.277Z,5.40
2017-09-19T12:25:11.870Z,5.97
2017-09-19T12:27:40.198Z,4.90
2017-09-19T12:30:07.767Z,5.25
2017-09-19T12:32:35.334Z,4.45
2017-09-19T12:35:02.919Z,5.10
2017-09-19T12:37:31.255Z,5.85
2017-09-19T12:39:59.120Z,4.60
2017-09-19T12:42:26.703Z,4.87
2017-09-19T12:44:54.277Z,5.20
2017-09-19T12:47:22.610Z,4.80
2017-09-19T12:49:50.195Z,4.03
2017-09-19T12:52:17.794Z,5.03
2017-09-19T12:54:45.371Z,5.05
2017-09-19T12:57:13.266Z,6.90
2017-09-19T12:59:40.849Z,4.07
2017-09-19T13:02:08.440Z,4.45
2017-09-19T13:04:36.055Z,4.57
2017-09-19T13:07:03.666Z,3.50
2017-09-19T13:09:31.259Z,5.57
2017-09-19T13:11:58.828Z,3.85
2017-09-19T13:14:26.697Z,3.92
2017-09-19T13:16:54.266Z,3.97
2017-09-19T13:19:21.855Z,3.80
2017-09-19T13:21:50.204Z,4.57
2017-09-19T13:24:17.789Z,3.85
2017-09-19T13:26:45.384Z,3.37
2017-09-19T13:29:12.950Z,4.00
2017-09-19T13:31:52.186Z,3.40
2017-09-19T13:34:19.749Z,4.18
2017-09-19T13:36:47.588Z,4.57
2017-09-19T13:39:15.169Z,3.53
2017-09-19T13:41:42.748Z,3.60
2017-09-19T13:44:10.345Z,3.50
2017-09-19T13:46:37.925Z,2.95
2017-09-19T13:49:05.523Z,4.18
2017-09-19T13:51:33.102Z,3.97
2017-09-19T13:54:01.450Z,3.80
2017-09-19T13:56:29.001Z,2.80
2017-09-19T13:58:56.881Z,1.77
2017-09-19T14:01:24.517Z,1.85
2017-09-19T14:03:52.091Z,2.20
2017-09-19T14:06:19.665Z,1.98
2017-09-19T14:08:48.129Z,1.80
2017-09-19T14:11:15.698Z,2.25
2017-09-19T14:13:43.291Z,1.67
2017-09-19T14:16:11.646Z,2.15
2017-09-19T14:18:39.219Z,2.03
2017-09-19T14:21:07.562Z,2.17
2017-09-19T14:23:35.130Z,2.60
2017-09-19T14:26:02.703Z,2.35
2017-09-19T14:28:30.286Z,2.37
2017-09-19T14:30:58.630Z,2.33
2017-09-19T14:33:26.205Z,2.50
2017-09-19T14:35:53.817Z,3.50
2017-09-19T14:38:21.431Z,2.50
2017-09-19T14:40:48.982Z,2.40
2017-09-19T14:43:16.584Z,2.58
2017-09-19T14:45:44.153Z,1.45
2017-09-19T14:48:12.037Z,2.25
2017-09-19T14:50:39.654Z,1.80
2017-09-19T14:53:07.987Z,2.62
2017-09-19T14:55:35.557Z,2.20
2017-09-19T14:58:03.350Z,1.60
2017-09-19T15:00:30.950Z,2.08
2017-09-19T15:02:58.518Z,2.17
2017-09-19T15:05:26.088Z,2.05
2017-09-19T15:07:53.661Z,1.90
2017-09-19T15:10:21.535Z,1.90
2017-09-19T15:12:49.126Z,1.77
2017-09-19T15:15:16.710Z,1.50
2017-09-19T15:17:44.275Z,1.48
2017-09-19T15:20:11.839Z,1.60
2017-09-19T15:22:39.418Z,1.45
2017-09-19T15:25:07.043Z,1.50
2017-09-19T15:27:34.620Z,1.65
2017-09-19T15:30:02.191Z,1.58
2017-09-19T15:32:29.757Z,1.98
2017-09-19T15:34:57.346Z,1.83
2017-09-19T15:37:25.972Z,1.73
2017-09-19T15:39:53.536Z,1.90
2017-09-19T15:42:21.096Z,10.13
2017-09-19T15:44:48.672Z,1.70
2017-09-19T15:47:16.252Z,2.05
2017-09-19T15:49:44.601Z,2.17
2017-09-19T15:52:12.156Z,2.20
2017-09-19T15:54:39.756Z,2.20
2017-09-19T15:57:08.082Z,1.85
2017-09-19T15:59:35.663Z,2.25
2017-09-19T16:02:03.239Z,2.10
2017-09-19T16:04:32.016Z,2.15
2017-09-19T16:06:59.599Z,2.33
2017-09-19T16:09:27.928Z,1.35
2017-09-19T16:11:55.498Z,1.42
2017-09-19T16:14:23.054Z,1.50
2017-09-19T16:16:50.659Z,1.50
2017-09-19T16:19:18.244Z,1.30
2017-09-19T16:21:45.808Z,1.73
2017-09-19T16:24:13.369Z,1.77
2017-09-19T16:26:40.944Z,1.60
2017-09-19T16:29:08.534Z,1.80
2017-09-19T16:31:37.191Z,1.42
2017-09-19T16:34:04.749Z,5.62
2017-09-19T16:36:32.320Z,2.60
2017-09-19T16:38:59.895Z,2.75
2017-09-19T16:41:27.456Z,1.60
2017-09-19T16:43:55.788Z,1.60
2017-09-19T16:46:23.364Z,1.50
2017-09-19T16:48:50.950Z,2.28
2017-09-19T16:51:19.283Z,1.70
2017-09-19T16:53:47.165Z,2.37
2017-09-19T16:56:14.736Z,4.55
2017-09-19T16:58:42.308Z,5.55
2017-09-19T17:01:10.650Z,2.78
2017-09-19T17:03:38.221Z,2.40
2017-09-19T17:06:05.806Z,3.65
2017-09-19T17:08:34.131Z,5.05
2017-09-19T17:11:02.042Z,1.98
2017-09-19T17:13:29.693Z,2.12
2017-09-19T17:15:57.311Z,2.28
2017-09-19T17:18:24.888Z,2.00
2017-09-19T17:20:52.461Z,2.37
2017-09-19T17:23:20.093Z,2.47
2017-09-19T17:25:47.708Z,1.83
2017-09-19T17:28:16.346Z,2.83
2017-09-19T17:30:43.928Z,3.67
2017-09-19T17:33:11.490Z,4.50
2017-09-19T17:35:39.091Z,2.92
2017-09-19T17:38:06.648Z,2.97
2017-09-19T17:40:34.238Z,2.45
2017-09-19T17:43:01.790Z,2.15
2017-09-19T17:45:29.401Z,2.65
2017-09-19T17:47:56.981Z,2.35
2017-09-19T17:50:24.878Z,2.70
2017-09-19T17:52:52.439Z,2.45
2017-09-19T17:55:20.001Z,4.43
2017-09-19T17:57:47.595Z,2.90
2017-09-19T18:00:15.172Z,6.07
2017-09-19T18:02:43.816Z,3.30
2017-09-19T18:05:11.401Z,2.87
2017-09-19T18:07:38.972Z,4.80
2017-09-19T18:10:07.347Z,4.05
2017-09-19T18:12:34.925Z,2.95
2017-09-19T18:15:03.288Z,2.45
2017-09-19T18:17:31.632Z,2.65
2017-09-19T18:19:59.493Z,2.95
2017-09-19T18:22:27.073Z,2.55
2017-09-19T18:24:54.659Z,1.95
2017-09-19T18:27:23.022Z,2.58
2017-09-19T18:29:51.358Z,2.70
2017-09-19T18:32:18.973Z,2.47
2017-09-19T18:34:47.349Z,2.17
2017-09-19T18:37:15.192Z,2.53
2017-09-19T18:39:43.572Z,3.70
2017-09-19T18:42:11.927Z,4.30
2017-09-19T18:44:40.483Z,2.97
2017-09-19T18:47:08.056Z,2.70
2017-09-19T18:49:35.654Z,3.60
2017-09-19T18:52:03.989Z,3.47
2017-09-19T18:54:31.974Z,3.25
2017-09-19T18:56:59.554Z,4.07
2017-09-19T18:59:27.516Z,3.25
2017-09-19T19:01:55.098Z,3.90
2017-09-19T19:04:23.624Z,3.70
2017-09-19T19:06:51.272Z,3.80
2017-09-19T19:09:18.951Z,3.40
2017-09-19T19:11:46.558Z,4.00
2017-09-19T19:14:14.901Z,4.60
2017-09-19T19:16:42.489Z,3.87
2017-09-19T19:19:10.289Z,3.55
2017-09-19T19:21:38.486Z,3.45
2017-09-19T19:24:06.889Z,4.95
2017-09-19T19:26:35.326Z,3.65
2017-09-19T19:29:02.957Z,3.67
2017-09-19T19:31:31.309Z,3.53
2017-09-19T19:33:58.893Z,3.92
2017-09-19T19:36:27.836Z,3.40
2017-09-19T19:38:55.454Z,4.22
2017-09-19T19:41:23.045Z,4.53
2017-09-19T19:43:50.884Z,3.72
2017-09-19T19:46:18.591Z,3.20
2017-09-19T19:48:47.135Z,4.18
2017-09-19T19:51:14.731Z,4.15
2017-09-19T19:53:42.336Z,3.65
2017-09-19T19:56:10.690Z,3.72
2017-09-19T19:58:39.083Z,4.45
2017-09-19T20:01:06.662Z,4.90
2017-09-19T20:03:34.603Z,4.07
2017-09-19T20:06:03.036Z,3.80
2017-09-19T20:08:31.570Z,4.20
2017-09-19T20:11:16.142Z,3.55
2017-09-19T20:13:43.777Z,3.90
2017-09-19T20:16:12.141Z,4.12
2017-09-19T20:18:40.112Z,3.75
2017-09-19T20:21:08.658Z,3.83
2017-09-19T20:23:36.225Z,3.53
2017-09-19T20:26:03.784Z,3.95
2017-09-19T20:28:31.338Z,4.00
2017-09-19T20:30:58.922Z,4.30
2017-09-19T20:33:26.480Z,3.78
2017-09-19T20:35:54.071Z,3.65
2017-09-19T20:38:22.427Z,3.85
2017-09-19T20:40:51.087Z,3.22
2017-09-19T20:43:18.652Z,3.55
2017-09-19T20:45:46.213Z,3.70
2017-09-19T20:48:28.110Z,3.70
2017-09-19T20:51:04.038Z,3.30
2017-09-19T20:53:39.166Z,4.05
2017-09-19T20:56:10.445Z,3.75
2017-09-19T20:58:38.083Z,3.25
2017-09-19T21:01:05.666Z,3.15
2017-09-19T21:03:39.162Z,3.50
2017-09-19T21:06:13.487Z,3.70
2017-09-19T21:08:46.843Z,3.55
2017-09-19T21:11:19.965Z,3.67
2017-09-19T21:13:53.086Z,4.00
2017-09-19T21:16:26.372Z,3.87
2017-09-19T21:19:00.242Z,3.40
2017-09-19T21:21:27.920Z,3.60
2017-09-19T21:23:55.951Z,3.72
2017-09-19T21:26:23.548Z,4.00
2017-09-19T21:28:51.125Z,4.45
2017-09-19T21:31:19.467Z,4.50
2017-09-19T21:33:47.055Z,3.70
2017-09-19T21:36:14.616Z,4.03
2017-09-19T21:38:42.447Z,4.32
2017-09-19T21:41:10.164Z,4.12
2017-09-19T21:43:37.716Z,4.50
2017-09-19T21:46:06.094Z,3.75
2017-09-19T21:51:23.687Z,4.40
2017-09-19T21:53:52.135Z,4.75
2017-09-19T21:56:19.748Z,4.75
2017-09-19T21:58:47.396Z,4.72
2017-09-19T22:01:15.007Z,5.18
2017-09-19T22:03:42.619Z,5.30
2017-09-19T22:06:11.236Z,5.12
2017-09-19T22:08:39.172Z,5.75
2017-09-19T22:11:06.741Z,4.78
2017-09-19T22:13:34.771Z,5.10
2017-09-19T22:16:02.440Z,4.80
2017-09-19T22:18:30.763Z,5.55
2017-09-19T22:20:59.367Z,4.87
2017-09-19T22:23:26.978Z,5.25
2017-09-19T22:25:54.567Z,5.18
2017-09-19T22:28:22.906Z,4.95
2017-09-19T22:30:50.480Z,5.60
2017-09-19T22:33:18.041Z,5.32
2017-09-19T22:35:45.884Z,5.07
2017-09-19T22:38:13.485Z,6.25
2017-09-19T22:40:41.807Z,5.90
2017-09-19T22:43:09.486Z,4.85
2017-09-19T22:45:37.055Z,6.22
2017-09-19T22:48:04.694Z,5.18
2017-09-19T22:50:32.376Z,5.80
2017-09-19T22:53:00.380Z,5.93
2017-09-19T22:55:28.900Z,6.20
2017-09-19T22:57:56.499Z,6.30
2017-09-19T23:00:24.077Z,7.12
2017-09-19T23:02:52.432Z,6.03
2017-09-19T23:05:20.184Z,6.68
2017-09-19T23:07:47.741Z,6.68
2017-09-19T23:10:15.313Z,6.75
2017-09-19T23:12:42.864Z,6.22
2017-09-19T23:15:10.433Z,7.35
2017-09-19T23:17:37.992Z,7.18
2017-09-19T23:20:05.554Z,7.25
2017-09-19T23:22:33.123Z,7.07
2017-09-19T23:25:01.443Z,7.00
2017-09-19T23:27:29.014Z,7.07
2017-09-19T23:29:56.819Z,7.37
2017-09-19T23:32:24.659Z,7.00
2017-09-19T23:34:52.796Z,7.53
2017-09-19T23:37:21.199Z,8.70
2017-09-19T23:39:48.764Z,7.75
2017-09-19T23:42:16.319Z,8.20
2017-09-19T23:44:43.897Z,9.15
2017-09-19T23:47:11.468Z,8.27
2017-09-19T23:49:39.308Z,8.00
2017-09-19T23:52:06.868Z,8.60
2017-09-19T23:54:34.436Z,8.98
2017-09-19T23:57:02.023Z,8.57
2017-09-19T23:59:30.356Z,7.85
